Time;durP1;ratioP1;P1;durP2;ratioP2;P2;SDS_P1;SDS_P2;PMS_P1;PMS_P2;Temp;Humidity;BMP_temperature;BMP_pressure;BME280_temperature;BME280_humidity;BME280_pressure;Samples;Min_cycle;Max_cycle;Signal;HPM_P1;HPM_P2
2022/06/10 00:09:03;;;;;;;8.20;3.42;;;;;;;12.91;100.00;100953.25;20994194;28;20274;-65
2022/06/10 00:19:04;;;;;;;8.13;3.28;;;;;;;12.82;100.00;100969.16;20993886;28;20408;-65
2022/06/10 00:29:06;;;;;;;9.18;4.03;;;;;;;12.82;100.00;100977.03;20993228;28;20048;-66
2022/06/10 00:39:07;;;;;;;9.50;3.88;;;;;;;12.65;100.00;100972.06;20991763;28;20501;-68
2022/06/10 00:49:14;;;;;;;6.40;3.55;;;;;;;12.52;100.00;100978.38;20991561;28;20090;-67
2022/06/10 00:59:22;;;;;;;7.65;3.55;;;;;;;12.42;100.00;100977.66;20990523;28;20507;-69
2022/06/10 01:09:27;;;;;;;5.97;4.10;;;;;;;12.26;100.00;100976.09;20989544;28;20083;-68
2022/06/10 01:20:01;;;;;;;10.88;4.68;;;;;;;12.20;100.00;100981.44;20989499;28;20055;-67
2022/06/10 01:30:27;;;;;;;9.45;3.92;;;;;;;12.15;100.00;100992.00;20988289;28;20117;-67
2022/06/10 01:40:41;;;;;;;9.57;3.78;;;;;;;12.06;100.00;100985.09;20988018;28;20421;-68
2022/06/10 01:50:55;;;;;;;9.95;4.05;;;;;;;11.97;100.00;100993.09;20986560;28;20051;-67
2022/06/10 02:01:02;;;;;;;8.23;4.00;;;;;;;11.89;100.00;101000.22;20985611;28;20046;-68
2022/06/10 02:11:15;;;;;;;12.15;4.10;;;;;;;11.82;100.00;100995.91;20985513;28;20567;-68
2022/06/10 02:21:23;;;;;;;8.30;3.85;;;;;;;11.73;100.00;100998.59;20985145;28;20044;-68
2022/06/10 02:31:32;;;;;;;8.80;4.30;;;;;;;11.70;100.00;101006.50;20983179;28;20048;-67
2022/06/10 02:41:43;;;;;;;8.65;3.90;;;;;;;11.65;100.00;101021.44;20982730;28;20524;-67
2022/06/10 02:51:46;;;;;;;12.38;4.28;;;;;;;11.59;100.00;101024.09;20981774;28;20082;-68
2022/06/10 03:02:08;;;;;;;10.93;4.72;;;;;;;11.56;100.00;101039.00;20981813;28;20106;-68
2022/06/10 03:12:22;;;;;;;11.85;4.93;;;;;;;11.54;100.00;101059.09;20982673;28;20139;-71
2022/06/10 03:22:40;;;;;;;9.68;4.43;;;;;;;11.44;100.00;101053.97;20981455;28;20048;-69
2022/06/10 03:32:52;;;;;;;10.20;3.75;;;;;;;11.42;100.00;101067.09;20979869;28;20047;-70
2022/06/10 03:42:57;;;;;;;13.57;5.03;;;;;;;11.42;100.00;101074.09;20980324;28;20098;-70
2022/06/10 03:52:58;;;;;;;17.65;4.32;;;;;;;11.41;100.00;101088.09;20980811;28;20127;-70
2022/06/10 04:03:00;;;;;;;11.75;4.90;;;;;;;11.50;100.00;101091.50;20994350;28;20501;-67
2022/06/10 04:13:01;;;;;;;11.77;4.43;;;;;;;11.65;100.00;101100.13;20995201;28;20075;-67
2022/06/10 04:23:04;;;;;;;11.27;4.43;;;;;;;11.87;100.00;101100.81;20992828;28;20346;-67
2022/06/10 04:33:06;;;;;;;7.30;4.18;;;;;;;12.93;100.00;101098.63;20992088;28;20052;-67
2022/06/10 04:43:08;;;;;;;12.75;3.67;;;;;;;14.12;100.00;101094.06;20992992;28;20090;-67
2022/06/10 04:53:10;;;;;;;10.57;3.30;;;;;;;14.47;100.00;101108.31;20992356;28;20048;-66
2022/06/10 05:03:12;;;;;;;11.82;3.00;;;;;;;13.81;100.00;101122.72;20989550;28;20470;-65
2022/06/10 05:13:16;;;;;;;11.73;4.13;;;;;;;13.85;100.00;101134.06;20989443;28;20052;-65
2022/06/10 05:23:20;;;;;;;9.30;3.50;;;;;;;13.93;100.00;101137.41;20989284;28;20060;-65
2022/06/10 05:33:21;;;;;;;11.65;4.20;;;;;;;13.78;100.00;101138.56;20987185;28;20047;-66
2022/06/10 05:43:23;;;;;;;9.38;3.60;;;;;;;14.16;100.00;101130.88;20988006;28;20467;-66
2022/06/10 05:53:24;;;;;;;11.43;3.30;;;;;;;14.24;100.00;101150.91;20987095;28;20105;-65
2022/06/10 06:03:26;;;;;;;7.93;2.63;;;;;;;14.55;100.00;101164.38;20985194;28;20105;-65
2022/06/10 06:13:27;;;;;;;10.27;3.65;;;;;;;15.02;100.00;101151.97;20985098;28;20509;-65
2022/06/10 06:23:29;;;;;;;12.10;2.83;;;;;;;15.13;100.00;101152.59;20984636;28;20056;-65
2022/06/10 06:33:30;;;;;;;8.20;2.65;;;;;;;15.51;100.00;101149.97;20983784;28;20063;-65
2022/06/10 06:43:32;;;;;;;10.43;2.28;;;;;;;15.92;100.00;101148.97;20983451;28;20072;-65
2022/06/10 06:53:34;;;;;;;9.55;2.67;;;;;;;16.22;100.00;101154.34;20983122;28;20052;-65
2022/06/10 07:03:35;;;;;;;10.57;3.17;;;;;;;16.51;98.61;101149.13;20969291;28;20049;-65
2022/06/10 07:13:38;;;;;;;9.45;2.65;;;;;;;16.77;96.92;101152.81;20928215;28;20045;-65
2022/06/10 07:23:39;;;;;;;10.20;2.50;;;;;;;17.00;96.50;101152.16;20933631;28;20048;-68
2022/06/10 07:33:41;;;;;;;7.63;2.63;;;;;;;17.55;96.10;101143.34;20981310;28;20051;-68
2022/06/10 07:43:43;;;;;;;7.13;2.10;;;;;;;17.79;94.82;101143.50;20922410;28;20067;-68
2022/06/10 07:53:45;;;;;;;7.90;2.25;;;;;;;17.84;87.15;101146.84;20906315;28;20133;-69
2022/06/10 08:03:47;;;;;;;8.27;2.13;;;;;;;18.36;86.19;101134.44;20904818;28;20094;-68
2022/06/10 08:13:49;;;;;;;7.05;2.10;;;;;;;18.68;85.41;101136.78;20938596;28;20113;-68
2022/06/10 08:23:52;;;;;;;6.35;1.90;;;;;;;18.56;83.75;101134.56;20987087;28;20509;-67
2022/06/10 08:33:53;;;;;;;7.55;2.10;;;;;;;19.30;74.48;101129.94;20985232;28;20061;-65
2022/06/10 08:44:01;;;;;;;5.72;1.70;;;;;;;19.70;79.39;101118.59;20984509;28;20103;-65
2022/06/10 08:54:24;;;;;;;6.63;2.30;;;;;;;20.10;71.60;101116.84;20984347;28;20063;-65
2022/06/10 09:04:41;;;;;;;7.53;1.60;;;;;;;19.64;64.95;101117.97;20982341;28;20054;-66
2022/06/10 09:14:43;;;;;;;7.82;1.60;;;;;;;20.15;68.91;101120.19;20942067;28;20048;-66
2022/06/10 09:25:09;;;;;;;4.55;1.48;;;;;;;21.02;63.47;101110.00;20899228;28;20053;-66
2022/06/10 09:35:46;;;;;;;5.00;1.80;;;;;;;20.42;60.60;101112.78;20897915;28;20041;-66
2022/06/10 09:46:10;;;;;;;5.90;1.67;;;;;;;20.50;59.89;101115.09;20890437;28;20505;-66
2022/06/10 09:56:24;;;;;;;3.80;1.30;;;;;;;21.05;52.27;101101.03;20896124;28;20098;-65
2022/06/10 10:06:38;;;;;;;4.70;1.30;;;;;;;21.70;51.95;101095.13;20895358;28;20049;-66
2022/06/10 10:16:49;;;;;;;6.78;1.25;;;;;;;22.09;52.74;101086.00;20952507;28;20679;-66
2022/06/10 10:26:51;;;;;;;5.20;1.20;;;;;;;22.54;47.12;101076.50;20976169;28;20162;-66
2022/06/10 10:36:57;;;;;;;4.20;1.52;;;;;;;22.95;50.03;101065.38;20976224;28;20138;-66
2022/06/10 10:47:15;;;;;;;3.63;1.30;;;;;;;22.74;46.11;101065.56;20976085;28;20052;-66
2022/06/10 10:57:31;;;;;;;4.32;1.33;;;;;;;23.67;45.41;101042.50;20974802;28;20384;-66
2022/06/10 11:07:33;;;;;;;3.35;1.00;;;;;;;23.02;38.30;101061.38;20973554;28;20049;-66
2022/06/10 11:17:36;;;;;;;4.95;1.20;;;;;;;22.77;39.04;101053.88;20910045;28;20049;-66
2022/06/10 11:27:50;;;;;;;4.70;0.95;;;;;;;22.72;38.82;101040.78;20891645;28;20524;-71
2022/06/10 11:38:00;;;;;;;3.80;1.25;;;;;;;23.09;41.00;101030.69;20889665;28;20049;-68
2022/06/10 11:48:09;;;;;;;4.15;1.58;;;;;;;23.51;39.87;101018.44;20890977;28;20102;-69
2022/06/10 12:08:56;;;;;;;5.97;1.10;;;;;;;23.33;41.74;100995.47;20888825;28;20094;-72
2022/06/10 12:19:06;;;;;;;4.10;1.10;;;;;;;23.88;36.89;100992.16;20971628;28;20052;-69
2022/06/10 12:29:10;;;;;;;4.22;0.90;;;;;;;23.77;40.81;100974.97;20986440;28;20548;-69
2022/06/10 12:39:24;;;;;;;5.25;1.17;;;;;;;23.88;40.24;100974.31;20985611;28;20080;-69
2022/06/10 12:49:41;;;;;;;6.88;1.27;;;;;;;24.43;39.58;100961.94;20984927;28;20044;-68
2022/06/10 12:59:43;;;;;;;3.50;1.20;;;;;;;23.64;40.16;100960.63;20984263;28;20101;-68
2022/06/10 13:09:44;;;;;;;5.43;1.30;;;;;;;24.72;40.69;100952.00;20983098;28;20059;-69
2022/06/10 13:19:56;;;;;;;5.40;1.73;;;;;;;25.06;40.13;100943.47;20900449;28;20049;-68
2022/06/10 13:30:14;;;;;;;3.22;0.90;;;;;;;24.73;39.10;100935.84;20898053;28;20049;-67
2022/06/10 13:40:25;;;;;;;4.25;1.17;;;;;;;24.99;37.66;100926.06;20896722;28;20087;-67
2022/06/10 14:01:05;;;;;;;3.87;1.20;;;;;;;24.19;38.97;100927.75;20896063;28;20171;-70
2022/06/10 14:11:14;;;;;;;3.38;1.10;;;;;;;24.15;40.08;100918.22;20907500;28;20102;-68
2022/06/10 14:21:15;;;;;;;5.13;1.20;;;;;;;24.43;37.25;100905.72;20977780;28;20496;-68
2022/06/10 14:31:32;;;;;;;2.30;0.98;;;;;;;25.06;36.07;100902.41;20976016;28;20098;-68
2022/06/10 14:41:49;;;;;;;5.78;1.20;;;;;;;24.86;37.86;100895.69;20976810;28;20048;-70
2022/06/10 14:51:50;;;;;;;3.63;1.10;;;;;;;24.82;37.25;100903.09;20975639;28;20094;-67
2022/06/10 15:01:54;;;;;;;4.30;0.90;;;;;;;25.59;34.12;100898.72;20974760;28;20052;-68
2022/06/10 15:11:57;;;;;;;5.95;1.30;;;;;;;25.71;33.61;100888.06;20957078;28;20098;-65
2022/06/10 15:21:59;;;;;;;5.18;1.02;;;;;;;25.76;32.03;100878.75;20891661;28;20049;-65
2022/06/10 15:32:01;;;;;;;6.00;1.10;;;;;;;25.87;33.88;100872.59;20891106;28;20051;-66
2022/06/10 15:42:06;;;;;;;2.88;1.20;;;;;;;25.90;33.53;100871.53;20891054;28;20057;-66
2022/06/10 15:52:25;;;;;;;4.20;1.20;;;;;;;25.80;33.42;100871.34;20895737;28;20107;-67
2022/06/10 16:02:29;;;;;;;3.70;1.08;;;;;;;25.92;34.22;100866.91;20906048;28;20053;-66
2022/06/10 16:13:17;;;;;;;4.60;1.10;;;;;;;26.04;33.69;100855.28;20928337;28;20048;-66
2022/06/10 16:22:55;;;;;;;2.23;0.80;;;;;;;25.96;32.93;100849.63;20977675;28;20705;-67
2022/06/10 16:32:59;;;;;;;2.85;0.90;;;;;;;25.38;34.13;100853.75;20987683;28;20404;-66
2022/06/10 16:43:00;;;;;;;5.60;1.40;;;;;;;25.30;33.46;100852.50;20986173;28;20484;-66
2022/06/10 16:53:02;;;;;;;7.07;1.40;;;;;;;25.74;32.69;100845.78;20986424;28;20048;-66
2022/06/10 17:03:05;;;;;;;5.47;1.17;;;;;;;25.36;34.78;100842.31;20983687;28;20339;-67
2022/06/10 17:13:14;;;;;;;4.72;1.38;;;;;;;25.60;34.37;100848.59;20956105;28;20080;-66
2022/06/10 17:23:19;;;;;;;4.28;1.15;;;;;;;25.55;35.60;100848.94;20900479;28;20118;-67
2022/06/10 17:33:31;;;;;;;4.05;0.98;;;;;;;25.44;35.04;100850.66;20899152;28;20080;-67
2022/06/10 17:43:40;;;;;;;3.92;1.00;;;;;;;25.08;33.73;100849.59;20898320;28;20577;-68
2022/06/10 17:53:42;;;;;;;3.60;0.90;;;;;;;25.02;34.13;100855.34;20892881;28;20041;-66
2022/06/10 18:03:43;;;;;;;5.05;1.20;;;;;;;24.97;35.01;100857.50;20911232;22;20844;-74
2022/06/10 18:24:19;;;;;;;4.25;1.10;;;;;;;24.57;36.91;100847.63;20989037;28;20056;-74
2022/06/10 18:34:20;;;;;;;4.18;0.80;;;;;;;24.33;38.72;100846.56;20988941;28;20098;-73
2022/06/10 18:44:21;;;;;;;4.30;1.40;;;;;;;23.89;40.66;100847.66;20987166;28;20719;-74
2022/06/10 18:54:36;;;;;;;6.38;2.08;;;;;;;23.13;47.71;100852.41;20984524;28;20048;-74
2022/06/10 19:04:43;;;;;;;5.57;1.60;;;;;;;22.43;49.81;100860.09;20981298;28;20044;-79
2022/06/10 19:14:47;;;;;;;5.60;1.30;;;;;;;21.89;50.92;100870.22;20938383;28;20056;-80
2022/06/10 19:24:49;;;;;;;3.13;1.10;;;;;;;21.38;56.64;100869.44;20897919;28;20049;-76
2022/06/10 19:34:54;;;;;;;3.90;1.10;;;;;;;21.10;61.02;100880.66;20918082;28;20398;-76
2022/06/10 19:44:56;;;;;;;4.13;1.45;;;;;;;20.75;64.28;100881.53;20917958;28;20069;-74
2022/06/10 19:55:02;;;;;;;4.50;1.52;;;;;;;20.33;66.10;100895.09;20912978;28;20451;-74
2022/06/10 20:05:08;;;;;;;4.80;2.10;;;;;;;19.99;67.46;100907.34;20909787;28;20057;-83
2022/06/10 20:15:10;;;;;;;6.05;1.45;;;;;;;19.54;72.97;100914.72;20955220;28;20044;-74
2022/06/10 20:25:25;;;;;;;8.07;1.73;;;;;;;19.36;76.59;100913.75;20992844;28;20054;-74
2022/06/10 20:35:33;;;;;;;4.93;1.63;;;;;;;19.04;78.87;100921.31;20992046;28;20090;-74
2022/06/10 20:45:42;;;;;;;7.03;1.83;;;;;;;18.48;86.31;100920.97;20990893;28;20157;-77
2022/06/10 20:55:45;;;;;;;4.65;2.17;;;;;;;17.99;89.27;100936.13;20989594;28;20238;-75
2022/06/10 21:16:21;;;;;;;6.25;1.70;;;;;;;17.60;88.99;100942.81;20938193;28;20049;-73
2022/06/10 21:26:27;;;;;;;6.05;2.00;;;;;;;17.37;89.70;100945.41;20912737;28;20048;-74
2022/06/10 21:46:32;;;;;;;5.03;2.08;;;;;;;16.86;91.87;100941.84;20571384;28;20113;-69
2022/06/10 21:56:36;;;;;;;5.32;2.10;;;;;;;16.72;94.59;100945.84;20573141;28;20057;-70
2022/06/10 22:06:40;;;;;;;5.95;2.10;;;;;;;16.63;94.64;100944.34;20574997;28;20113;-68
2022/06/10 22:16:54;;;;;;;6.03;2.27;;;;;;;16.62;94.63;100951.41;20579535;28;20411;-68
2022/06/10 22:26:58;;;;;;;5.10;2.40;;;;;;;16.24;98.17;100951.72;20578836;28;20069;-68
2022/06/10 22:36:59;;;;;;;7.90;2.70;;;;;;;16.10;100.00;100968.00;20576075;28;20047;-65
2022/06/10 22:47:05;;;;;;;8.30;2.70;;;;;;;15.92;100.00;100958.81;20576219;28;20050;-64
2022/06/10 22:57:08;;;;;;;8.55;2.97;;;;;;;15.90;100.00;100955.34;20576275;28;20193;-65
2022/06/10 23:07:10;;;;;;;7.07;2.95;;;;;;;15.70;100.00;100965.63;20575673;28;20089;-68
2022/06/10 23:17:17;;;;;;;7.03;3.00;;;;;;;15.43;100.00;100968.09;20575649;28;20042;-70
2022/06/10 23:27:22;;;;;;;8.98;3.00;;;;;;;15.19;100.00;100969.59;20575000;28;20061;-67
2022/06/10 23:37:29;;;;;;;;;;;;;;;15.17;100.00;100971.38;20573612;28;20086;-67
2022/06/10 23:57:56;;;;;;;8.10;3.50;;;;;;;14.61;100.00;100979.78;20573506;28;20062;-67
